createdAt,value
2017-08-12T00:20:36.038Z,99.90
2017-08-12T00:23:04.348Z,99.90
2017-08-12T00:25:31.880Z,99.90
2017-08-12T00:27:59.452Z,99.90
2017-08-12T00:30:26.992Z,99.90
2017-08-12T00:32:55.312Z,99.90
2017-08-12T00:35:22.846Z,99.90
2017-08-12T00:37:50.389Z,99.90
2017-08-12T00:40:17.920Z,99.90
2017-08-12T00:42:45.467Z,99.90
2017-08-12T00:45:13.001Z,99.90
2017-08-12T00:47:40.551Z,99.90
2017-08-12T00:50:08.086Z,99.90
2017-08-12T00:52:36.387Z,99.90
2017-08-12T00:55:03.953Z,99.90
2017-08-12T00:57:31.474Z,99.90
2017-08-12T00:59:59.042Z,99.90
2017-08-12T01:02:26.569Z,99.90
2017-08-12T01:04:54.104Z,99.90
2017-08-12T01:07:21.718Z,99.90
2017-08-12T01:09:49.253Z,99.90
2017-08-12T01:12:16.791Z,99.90
2017-08-12T01:14:44.339Z,99.90
2017-08-12T01:17:11.858Z,99.90
2017-08-12T01:19:39.403Z,99.90
2017-08-12T01:29:33.554Z,99.90
2017-08-12T01:32:01.094Z,99.90
2017-08-12T01:34:28.613Z,99.90
2017-08-12T01:36:56.144Z,99.90
2017-08-12T01:39:23.687Z,99.90
2017-08-12T01:41:51.239Z,99.90
2017-08-12T01:44:18.764Z,99.90
2017-08-12T01:46:46.311Z,99.90
2017-08-12T01:51:42.746Z,99.90
2017-08-12T01:59:08.034Z,99.90
2017-08-12T02:01:35.583Z,99.90
2017-08-12T02:04:03.115Z,99.90
2017-08-12T02:06:30.658Z,99.90
2017-08-12T02:08:58.194Z,99.90
2017-08-12T02:11:25.739Z,99.90
2017-08-12T02:13:53.254Z,99.90
2017-08-12T02:16:20.807Z,99.90
2017-08-12T02:18:49.195Z,99.90
2017-08-12T02:21:16.725Z,99.90
2017-08-12T02:23:44.241Z,99.90
2017-08-12T02:26:11.778Z,99.90
2017-08-12T02:33:37.087Z,99.90
2017-08-12T02:36:04.628Z,99.90
2017-08-12T02:38:32.175Z,99.90
2017-08-12T02:40:59.710Z,99.90
2017-08-12T02:43:27.265Z,99.90
2017-08-12T02:45:54.790Z,99.90
2017-08-12T02:48:22.335Z,99.90
2017-08-12T02:50:49.849Z,99.90
2017-08-12T02:53:17.393Z,99.90
2017-08-12T02:55:44.913Z,99.90
2017-08-12T02:58:12.454Z,99.90
2017-08-12T03:00:39.978Z,99.90
2017-08-12T03:03:07.527Z,99.90
2017-08-12T03:08:03.931Z,99.90
2017-08-12T03:10:32.605Z,99.90
2017-08-12T03:13:00.155Z,99.90
2017-08-12T03:15:27.695Z,99.90
2017-08-12T03:17:55.243Z,99.90
2017-08-12T03:20:23.546Z,99.90
2017-08-12T03:22:51.079Z,99.90
2017-08-12T03:25:18.598Z,99.90
2017-08-12T03:27:46.117Z,99.90
2017-08-12T03:30:13.651Z,99.90
2017-08-12T03:32:41.967Z,99.90
2017-08-12T03:40:07.298Z,99.90
2017-08-12T04:07:23.638Z,99.90
2017-08-12T04:09:51.163Z,99.90
2017-08-12T04:12:18.709Z,99.90
2017-08-12T04:14:46.221Z,99.90
2017-08-12T04:17:13.779Z,99.90
2017-08-12T04:19:41.361Z,99.90
2017-08-12T04:22:08.919Z,99.90
2017-08-12T04:24:36.462Z,99.90
2017-08-12T04:27:04.018Z,99.90
2017-08-12T04:29:31.547Z,99.90
2017-08-12T04:31:59.077Z,99.90
2017-08-12T04:34:26.603Z,99.90
2017-08-12T04:36:54.149Z,99.90
2017-08-12T04:41:50.562Z,99.90
2017-08-12T04:44:18.078Z,99.90
2017-08-12T04:46:48.322Z,99.90
2017-08-12T04:49:15.865Z,99.90
2017-08-12T04:51:43.415Z,99.90
2017-08-12T04:54:10.945Z,99.90
2017-08-12T04:56:38.489Z,99.90
2017-08-12T04:59:06.014Z,99.90
2017-08-12T05:01:33.533Z,99.90
2017-08-12T05:04:01.069Z,99.90
2017-08-12T05:08:57.508Z,99.90
2017-08-12T05:11:25.057Z,99.90
2017-08-12T05:13:52.622Z,99.90
2017-08-12T05:16:20.140Z,99.90
2017-08-12T05:18:47.677Z,99.90
2017-08-12T05:21:15.194Z,99.90
2017-08-12T05:23:42.729Z,99.90
2017-08-12T05:26:10.258Z,99.90
2017-08-12T05:28:37.803Z,99.90
2017-08-12T05:31:05.340Z,99.90
2017-08-12T05:33:32.874Z,99.90
2017-08-12T05:36:00.403Z,99.90
2017-08-12T05:38:27.938Z,99.90
2017-08-12T05:40:55.471Z,99.90
2017-08-12T05:43:24.145Z,99.90
2017-08-12T05:45:51.685Z,99.90
2017-08-12T05:48:19.244Z,99.90
2017-08-12T05:50:46.775Z,99.90
2017-08-12T05:53:14.306Z,99.90
2017-08-12T05:55:41.851Z,99.90
2017-08-12T05:58:10.137Z,99.90
2017-08-12T06:00:37.669Z,99.90
2017-08-12T06:03:05.191Z,99.90
2017-08-12T06:05:32.743Z,99.90
2017-08-12T06:08:00.261Z,99.90
2017-08-12T06:10:28.567Z,99.90
2017-08-12T06:12:56.091Z,99.90
2017-08-12T06:15:24.413Z,99.90
2017-08-12T06:17:51.934Z,99.90
2017-08-12T06:20:20.246Z,99.90
2017-08-12T06:22:47.769Z,99.90
2017-08-12T06:25:16.827Z,99.90
2017-08-12T06:27:44.349Z,99.90
2017-08-12T06:30:11.887Z,99.90
2017-08-12T06:32:40.170Z,99.90
2017-08-12T06:35:08.483Z,99.90
2017-08-12T06:37:36.001Z,99.90
2017-08-12T06:40:04.323Z,99.90
2017-08-12T06:42:31.856Z,99.90
2017-08-12T06:44:59.390Z,99.90
2017-08-12T06:47:26.905Z,99.90
2017-08-12T06:49:54.442Z,99.90
2017-08-12T06:52:21.976Z,99.90
2017-08-12T06:54:49.527Z,99.90
2017-08-12T06:57:17.055Z,99.90
2017-08-12T06:59:44.633Z,99.90
2017-08-12T07:02:12.149Z,99.90
2017-08-12T07:04:39.695Z,99.90
2017-08-12T07:07:07.234Z,99.90
2017-08-12T07:09:34.764Z,99.90
2017-08-12T07:14:31.181Z,99.90
2017-08-12T07:16:58.713Z,99.90
2017-08-12T07:19:27.016Z,99.90
2017-08-12T07:21:54.549Z,99.90
2017-08-12T07:24:22.075Z,99.90
2017-08-12T07:26:49.606Z,99.90
2017-08-12T07:29:17.140Z,99.90
2017-08-12T07:31:44.687Z,99.90
2017-08-12T07:34:12.205Z,99.90
2017-08-12T07:36:39.767Z,99.90
2017-08-12T07:39:07.295Z,99.90
2017-08-12T07:41:34.833Z,99.90
2017-08-12T07:44:03.159Z,99.90
2017-08-12T07:46:30.705Z,99.90
2017-08-12T07:48:58.281Z,99.90
2017-08-12T07:51:25.863Z,99.90
2017-08-12T07:53:53.429Z,99.90
2017-08-12T07:56:21.023Z,99.90
2017-08-12T07:58:48.665Z,99.90
2017-08-12T08:01:17.035Z,99.90
2017-08-12T08:03:44.633Z,99.90
2017-08-12T08:06:12.241Z,99.90
2017-08-12T08:08:39.875Z,99.90
2017-08-12T08:11:07.463Z,99.90
2017-08-12T08:13:35.032Z,99.90
2017-08-12T08:16:02.607Z,99.90
2017-08-12T08:18:30.148Z,99.90
2017-08-12T08:20:57.689Z,99.90
2017-08-12T08:23:25.237Z,99.90
2017-08-12T08:25:52.786Z,99.90
2017-08-12T08:28:20.333Z,99.90
2017-08-12T08:30:47.857Z,99.90
2017-08-12T08:33:15.407Z,99.90
2017-08-12T08:35:42.925Z,99.90
2017-08-12T08:38:10.471Z,99.90
2017-08-12T08:40:37.990Z,99.90
2017-08-12T08:43:05.534Z,99.90
2017-08-12T08:45:33.055Z,99.90
2017-08-12T08:48:00.596Z,99.90
2017-08-12T08:50:28.117Z,99.90
2017-08-12T08:52:55.661Z,99.90
2017-08-12T08:55:23.181Z,99.90
2017-08-12T08:57:51.492Z,99.90
2017-08-12T09:00:19.028Z,99.90
2017-08-12T09:02:46.583Z,99.90
2017-08-12T09:05:14.105Z,99.90
2017-08-12T09:07:41.696Z,99.90
2017-08-12T09:10:09.991Z,99.90
2017-08-12T09:12:37.545Z,99.90
2017-08-12T09:15:05.835Z,99.90
2017-08-12T09:17:33.358Z,99.90
2017-08-12T09:20:00.912Z,99.90
2017-08-12T09:22:28.438Z,99.90
2017-08-12T09:24:55.978Z,99.90
2017-08-12T09:27:23.509Z,99.90
2017-08-12T09:29:51.823Z,99.90
2017-08-12T09:32:19.341Z,99.90
2017-08-12T09:34:46.883Z,99.90
2017-08-12T09:37:14.411Z,99.90
2017-08-12T09:39:41.961Z,99.90
2017-08-12T09:42:09.487Z,99.90
2017-08-12T09:44:37.785Z,99.90
2017-08-12T09:47:05.305Z,99.90
2017-08-12T09:49:32.832Z,99.90
2017-08-12T09:52:00.364Z,99.90
2017-08-12T09:54:27.907Z,99.90
2017-08-12T09:56:56.211Z,99.90
2017-08-12T09:59:23.763Z,99.90
2017-08-12T10:01:51.298Z,99.90
2017-08-12T10:04:18.846Z,99.90
2017-08-12T10:06:46.383Z,99.90
2017-08-12T10:09:13.942Z,99.90
2017-08-12T10:11:41.577Z,99.90
2017-08-12T10:14:09.129Z,99.90
2017-08-12T10:16:36.662Z,99.90
2017-08-12T10:19:04.260Z,99.90
2017-08-12T10:21:31.795Z,99.90
2017-08-12T10:23:59.347Z,99.90
2017-08-12T10:26:26.908Z,99.90
2017-08-12T10:28:55.206Z,99.90
2017-08-12T10:31:22.751Z,99.90
2017-08-12T10:33:50.290Z,99.90
2017-08-12T10:36:17.833Z,99.90
2017-08-12T10:38:45.349Z,99.90
2017-08-12T10:41:12.882Z,99.90
2017-08-12T10:43:41.170Z,99.90
2017-08-12T10:46:08.722Z,99.90
2017-08-12T10:48:36.265Z,99.90
2017-08-12T10:51:03.832Z,99.90
2017-08-12T10:53:31.358Z,99.90
2017-08-12T10:55:58.905Z,99.90
2017-08-12T10:58:26.444Z,99.90
2017-08-12T11:00:54.005Z,99.90
2017-08-12T11:03:21.535Z,99.90
2017-08-12T11:05:49.083Z,99.90
2017-08-12T11:08:16.603Z,99.90
2017-08-12T11:10:44.148Z,99.90
2017-08-12T11:13:11.674Z,99.90
2017-08-12T11:15:39.230Z,99.90
2017-08-12T11:18:06.750Z,99.90
2017-08-12T11:20:34.289Z,99.90
2017-08-12T11:23:01.814Z,99.90
2017-08-12T11:25:29.329Z,99.90
2017-08-12T11:27:56.865Z,99.90
2017-08-12T11:30:24.395Z,99.90
2017-08-12T11:32:52.715Z,99.90
2017-08-12T11:35:20.228Z,99.90
2017-08-12T11:37:47.771Z,99.90
2017-08-12T11:40:15.289Z,99.90
2017-08-12T11:42:42.839Z,99.90
2017-08-12T11:45:10.355Z,99.90
2017-08-12T11:47:37.902Z,99.90
2017-08-12T11:50:05.413Z,99.90
2017-08-12T11:52:32.959Z,99.90
2017-08-12T11:55:00.473Z,99.90
2017-08-12T11:57:28.027Z,99.90
2017-08-12T11:59:55.537Z,99.90
2017-08-12T12:02:23.088Z,99.90
2017-08-12T12:04:50.601Z,99.90
2017-08-12T12:07:18.129Z,99.90
2017-08-12T12:09:45.658Z,99.90
2017-08-12T12:12:13.199Z,99.90
2017-08-12T12:14:40.722Z,99.90
2017-08-12T12:17:08.273Z,99.90
2017-08-12T12:19:36.947Z,99.90
2017-08-12T12:22:04.467Z,99.90
2017-08-12T12:24:32.006Z,99.90
2017-08-12T12:26:59.523Z,99.90
2017-08-12T12:29:27.825Z,99.90
2017-08-12T12:31:55.363Z,99.90
2017-08-12T12:34:23.679Z,99.90
2017-08-12T12:36:51.207Z,99.90
2017-08-12T12:39:18.751Z,99.90
2017-08-12T12:41:47.040Z,99.90
2017-08-12T12:44:14.590Z,99.90
2017-08-12T12:46:42.106Z,99.90
2017-08-12T12:49:09.637Z,99.90
2017-08-12T12:51:37.167Z,99.90
2017-08-12T12:54:05.510Z,99.90
2017-08-12T12:56:34.176Z,99.90
2017-08-12T12:59:01.724Z,99.90
2017-08-12T13:01:29.260Z,99.90
2017-08-12T13:03:57.568Z,99.90
2017-08-12T13:06:25.090Z,99.90
2017-08-12T13:08:53.389Z,99.90
2017-08-12T13:11:20.916Z,99.90
2017-08-12T13:13:48.453Z,99.90
2017-08-12T13:16:15.989Z,99.90
2017-08-12T13:18:43.549Z,99.90
2017-08-12T13:21:11.079Z,99.90
2017-08-12T13:23:39.395Z,99.90
2017-08-12T13:26:06.922Z,99.90
2017-08-12T13:28:34.457Z,99.90
2017-08-12T13:31:01.987Z,99.90
2017-08-12T13:33:29.525Z,99.90
2017-08-12T13:35:57.051Z,99.90
2017-08-12T13:38:25.351Z,99.90
2017-08-12T13:40:52.887Z,99.90
2017-08-12T13:43:21.188Z,99.90
2017-08-12T13:45:48.725Z,99.90
2017-08-12T13:48:17.032Z,99.90
2017-08-12T13:50:44.578Z,99.90
2017-08-12T13:53:12.101Z,99.90
2017-08-12T13:55:39.637Z,99.90
2017-08-12T13:58:07.164Z,99.90
2017-08-12T14:03:04.731Z,99.90
2017-08-12T14:05:33.025Z,99.90
2017-08-12T14:08:00.559Z,99.90
2017-08-12T14:10:28.870Z,99.90
2017-08-12T14:12:56.399Z,99.90
2017-08-12T14:15:23.937Z,99.90
2017-08-12T14:17:51.460Z,99.90
2017-08-12T14:20:20.148Z,99.90
2017-08-12T14:22:47.688Z,99.90
2017-08-12T14:25:15.245Z,99.90
2017-08-12T14:27:42.765Z,99.90
2017-08-12T14:30:10.299Z,99.90
2017-08-12T14:32:37.838Z,99.90
2017-08-12T14:35:05.362Z,99.90
2017-08-12T14:37:33.680Z,99.90
2017-08-12T14:40:01.217Z,99.90
2017-08-12T14:42:28.757Z,99.90
2017-08-12T14:44:57.420Z,99.90
2017-08-12T14:47:24.963Z,99.90
2017-08-12T14:49:52.490Z,99.90
2017-08-12T14:52:20.057Z,99.90
2017-08-12T14:54:50.458Z,99.90
2017-08-12T14:57:17.997Z,99.90
2017-08-12T14:59:45.532Z,99.90
2017-08-12T15:02:13.092Z,99.90
2017-08-12T15:04:40.623Z,99.90
2017-08-12T15:07:08.179Z,99.90
2017-08-12T15:09:35.697Z,99.90
2017-08-12T15:12:03.263Z,99.90
2017-08-12T15:14:30.800Z,99.90
2017-08-12T15:16:58.333Z,99.90
2017-08-12T15:19:25.878Z,99.90
2017-08-12T15:21:53.401Z,99.90
2017-08-12T15:24:20.947Z,99.90
2017-08-12T15:26:48.462Z,99.90
2017-08-12T15:29:16.002Z,99.90
2017-08-12T15:31:44.289Z,99.90
2017-08-12T15:34:11.824Z,99.90
2017-08-12T15:36:39.340Z,99.90
2017-08-12T15:39:06.893Z,99.90
2017-08-12T15:41:34.412Z,99.90
2017-08-12T15:44:01.960Z,99.90
2017-08-12T15:46:30.632Z,99.90
2017-08-12T15:48:58.173Z,99.90
2017-08-12T15:51:26.851Z,99.90
2017-08-12T15:53:54.394Z,99.90
2017-08-12T15:56:21.913Z,99.90
2017-08-12T15:58:49.466Z,99.90
2017-08-12T16:01:17.017Z,99.90
2017-08-12T16:03:45.689Z,98.60
2017-08-12T16:06:13.221Z,98.80
2017-08-12T16:08:40.792Z,97.90
2017-08-12T16:11:08.340Z,97.50
2017-08-12T16:16:11.260Z,95.60
2017-08-12T16:18:40.046Z,96.60
2017-08-12T16:21:07.586Z,96.70
2017-08-12T16:23:35.120Z,97.40
2017-08-12T16:26:02.674Z,97.70
2017-08-12T16:28:30.204Z,98.20
2017-08-12T16:30:57.764Z,99.60
2017-08-12T16:33:25.299Z,99.90
2017-08-12T16:35:52.850Z,99.90
2017-08-12T16:38:20.478Z,99.50
2017-08-12T16:40:48.018Z,99.90
2017-08-12T16:43:15.560Z,99.90
2017-08-12T16:45:43.092Z,99.90
2017-08-12T16:48:10.635Z,99.90
2017-08-12T16:50:38.931Z,99.90
2017-08-12T16:53:07.604Z,99.90
2017-08-12T16:55:35.122Z,99.90
2017-08-12T16:58:02.673Z,99.90
2017-08-12T17:00:30.211Z,99.90
2017-08-12T17:02:57.745Z,99.90
2017-08-12T17:05:26.043Z,99.90
2017-08-12T17:07:53.598Z,99.90
2017-08-12T17:10:21.140Z,99.90
2017-08-12T17:12:49.453Z,99.90
2017-08-12T17:15:16.987Z,99.90
2017-08-12T17:17:44.535Z,99.90
2017-08-12T17:20:12.054Z,99.90
2017-08-12T17:22:39.594Z,99.90
2017-08-12T17:25:07.110Z,99.90
2017-08-12T17:27:34.668Z,99.90
2017-08-12T17:30:02.185Z,99.90
2017-08-12T17:32:29.730Z,99.90
2017-08-12T17:34:57.259Z,99.90
2017-08-12T17:37:25.550Z,99.90
2017-08-12T17:42:21.971Z,99.90
2017-08-12T17:44:50.269Z,99.90
2017-08-12T17:47:17.799Z,99.90
2017-08-12T17:49:45.347Z,99.90
2017-08-12T17:52:12.865Z,99.90
2017-08-12T17:54:40.409Z,99.90
2017-08-12T17:57:07.948Z,99.90
2017-08-12T17:59:35.492Z,99.90
2017-08-12T18:02:03.016Z,99.90
2017-08-12T18:04:30.550Z,99.90
2017-08-12T18:06:58.095Z,99.90
2017-08-12T18:09:26.414Z,99.90
2017-08-12T18:11:53.942Z,99.90
2017-08-12T18:14:21.482Z,99.90
2017-08-12T18:16:49.002Z,99.90
2017-08-12T18:19:16.538Z,99.90
2017-08-12T18:21:45.196Z,99.90
2017-08-12T18:24:13.527Z,99.90
2017-08-12T18:26:41.073Z,99.90
2017-08-12T18:29:08.589Z,99.90
2017-08-12T18:31:36.127Z,99.90
2017-08-12T18:34:03.655Z,99.90
2017-08-12T18:36:31.195Z,99.90
2017-08-12T18:38:58.717Z,99.90
2017-08-12T18:41:26.256Z,99.90
2017-08-12T18:43:53.783Z,99.90
2017-08-12T18:46:21.330Z,99.90
2017-08-12T18:48:48.859Z,99.90
2017-08-12T18:51:16.432Z,99.90
2017-08-12T18:53:43.991Z,99.90
2017-08-12T18:56:11.539Z,99.90
2017-08-12T18:58:39.072Z,99.90
2017-08-12T19:01:06.623Z,99.90
2017-08-12T19:03:34.148Z,99.90
2017-08-12T19:06:01.665Z,99.90
2017-08-12T19:08:29.217Z,99.90
2017-08-12T19:10:56.760Z,99.90
2017-08-12T19:13:24.307Z,99.90
2017-08-12T19:15:52.970Z,99.90
2017-08-12T19:18:21.297Z,99.90
2017-08-12T19:20:48.817Z,99.90
2017-08-12T19:23:16.359Z,99.90
2017-08-12T19:25:43.877Z,99.90
2017-08-12T19:28:11.427Z,99.90
2017-08-12T19:30:38.955Z,99.90
2017-08-12T19:33:06.489Z,99.90
2017-08-12T19:35:34.005Z,99.90
2017-08-12T19:38:01.538Z,99.90
2017-08-12T19:40:29.058Z,99.90
2017-08-12T19:42:56.616Z,99.90
2017-08-12T19:45:24.154Z,99.90
2017-08-12T19:47:51.701Z,99.90
2017-08-12T19:50:19.227Z,99.90
2017-08-12T19:52:46.780Z,99.90
2017-08-12T19:55:14.301Z,99.90
2017-08-12T19:57:41.826Z,99.90
2017-08-12T20:00:09.369Z,99.90
2017-08-12T20:02:36.907Z,99.90
2017-08-12T20:05:04.449Z,99.90
2017-08-12T20:07:31.975Z,99.90
2017-08-12T20:09:59.518Z,99.90
2017-08-12T20:12:27.033Z,99.90
2017-08-12T20:14:54.576Z,99.90
2017-08-12T20:17:22.103Z,99.90
2017-08-12T20:19:49.653Z,99.90
2017-08-12T20:22:17.193Z,99.90
2017-08-12T20:24:45.523Z,99.90
2017-08-12T20:27:13.049Z,99.90
2017-08-12T20:29:40.698Z,99.90
2017-08-12T20:32:08.981Z,99.90
2017-08-12T20:34:37.292Z,99.90
2017-08-12T20:37:04.809Z,99.90
2017-08-12T20:39:32.368Z,99.90
2017-08-12T20:41:59.927Z,99.90
2017-08-12T20:44:27.475Z,99.90
2017-08-12T20:46:55.000Z,99.90
2017-08-12T20:49:22.530Z,99.90
2017-08-12T20:51:50.072Z,99.90
2017-08-12T20:54:17.603Z,99.90
2017-08-12T20:56:45.142Z,99.90
2017-08-12T20:59:12.658Z,99.90
2017-08-12T21:01:40.957Z,99.90
2017-08-12T21:04:08.479Z,99.90
2017-08-12T21:06:36.026Z,99.90
2017-08-12T21:09:03.565Z,99.90
2017-08-12T21:11:31.110Z,99.90
2017-08-12T21:13:58.630Z,99.90
2017-08-12T21:16:26.169Z,99.90
2017-08-12T21:18:53.690Z,99.90
2017-08-12T21:21:21.240Z,99.90
2017-08-12T21:23:48.786Z,99.90
2017-08-12T21:26:16.340Z,99.90
2017-08-12T21:28:43.877Z,99.90
2017-08-12T21:31:11.418Z,99.90
2017-08-12T21:33:38.944Z,99.90
2017-08-12T21:36:06.493Z,99.90
2017-08-12T21:38:34.024Z,99.90
2017-08-12T21:41:01.551Z,99.90
2017-08-12T21:43:29.081Z,99.90
2017-08-12T21:45:56.611Z,99.90
2017-08-12T21:48:24.151Z,99.90
2017-08-12T21:50:51.682Z,99.90
2017-08-12T21:53:19.233Z,99.90
2017-08-12T21:55:46.745Z,99.90
2017-08-12T21:58:15.067Z,99.90
2017-08-12T22:00:42.604Z,99.90
2017-08-12T22:03:10.147Z,99.90
2017-08-12T22:05:37.679Z,99.90
2017-08-12T22:08:05.220Z,99.90
2017-08-12T22:13:01.642Z,99.90
2017-08-12T22:15:29.165Z,99.90
2017-08-12T22:17:56.706Z,99.90
2017-08-12T22:20:24.217Z,99.90
2017-08-12T22:22:51.768Z,99.90
2017-08-12T22:25:19.299Z,99.90
2017-08-12T22:27:46.829Z,99.90
2017-08-12T22:30:14.387Z,99.90
2017-08-12T22:32:41.919Z,99.90
2017-08-12T22:35:09.467Z,99.90
2017-08-12T22:37:37.752Z,99.90
2017-08-12T22:40:06.479Z,99.90
2017-08-12T22:42:34.000Z,99.90
2017-08-12T22:45:01.548Z,99.90
2017-08-12T22:47:29.834Z,99.90
2017-08-12T22:49:57.366Z,99.90
2017-08-12T22:52:24.895Z,99.90
2017-08-12T22:54:52.438Z,99.90
2017-08-12T22:57:19.955Z,99.90
2017-08-12T22:59:47.513Z,99.90
2017-08-12T23:02:15.034Z,99.90
2017-08-12T23:04:42.565Z,99.90
2017-08-12T23:07:10.085Z,99.90
2017-08-12T23:09:37.618Z,99.90
2017-08-12T23:12:05.151Z,99.90
2017-08-12T23:14:32.690Z,99.90
2017-08-12T23:17:00.267Z,99.90
2017-08-12T23:19:27.812Z,99.90
2017-08-12T23:21:56.096Z,99.90
2017-08-12T23:24:23.647Z,99.90
2017-08-12T23:26:51.169Z,99.90
2017-08-12T23:29:18.737Z,99.90
2017-08-12T23:31:46.268Z,99.90
2017-08-12T23:34:13.809Z,99.90
2017-08-12T23:36:41.332Z,99.90
2017-08-12T23:39:08.851Z,99.90
2017-08-12T23:41:36.398Z,99.90
2017-08-12T23:44:03.917Z,99.90
2017-08-12T23:46:32.229Z,99.90
2017-08-12T23:48:59.899Z,99.90
2017-08-12T23:51:27.429Z,99.90
2017-08-12T23:53:54.950Z,99.90
2017-08-12T23:56:22.510Z,99.90
2017-08-12T23:58:50.041Z,99.90
